createdAt,value
2023-04-17T00:00:32.911Z,12.50
2023-04-17T00:03:01.540Z,12.93
2023-04-17T00:05:31.787Z,14.90
2023-04-17T00:08:00.237Z,14.67
2023-04-17T00:10:27.767Z,14.93
2023-04-17T00:12:55.255Z,13.57
2023-04-17T00:15:24.157Z,12.87
2023-04-17T00:17:51.656Z,13.93
2023-04-17T00:20:19.185Z,16.37
2023-04-17T00:22:46.655Z,12.77
2023-04-17T00:25:14.995Z,13.93
2023-04-17T00:27:43.033Z,11.07
2023-04-17T00:30:11.242Z,13.30
2023-04-17T00:32:40.065Z,14.03
2023-04-17T00:35:08.396Z,14.77
2023-04-17T00:37:36.277Z,13.20
2023-04-17T00:40:04.117Z,15.07
2023-04-17T00:42:31.582Z,14.33
2023-04-17T00:44:59.073Z,15.20
2023-04-17T00:47:26.854Z,14.27
2023-04-17T00:49:55.688Z,13.47
2023-04-17T00:52:29.588Z,15.57
2023-04-17T00:54:58.644Z,12.60
2023-04-17T00:57:26.414Z,13.23
2023-04-17T00:59:55.344Z,13.70
2023-04-17T01:02:23.025Z,13.47
2023-04-17T01:04:50.542Z,12.57
2023-04-17T01:07:19.363Z,12.47
2023-04-17T01:09:46.858Z,12.83
2023-04-17T01:12:18.802Z,12.67
2023-04-17T01:14:46.344Z,12.57
2023-04-17T01:17:15.352Z,11.33
2023-04-17T01:19:42.989Z,11.40
2023-04-17T01:22:10.459Z,12.33
2023-04-17T01:24:39.680Z,12.63
2023-04-17T01:27:07.699Z,13.53
2023-04-17T01:29:35.598Z,13.20
2023-04-17T01:32:03.064Z,13.20
2023-04-17T01:34:30.523Z,15.13
2023-04-17T01:36:58.075Z,13.57
2023-04-17T01:39:25.728Z,17.80
2023-04-17T01:41:54.568Z,15.20
2023-04-17T01:44:22.132Z,11.97
2023-04-17T01:46:49.610Z,11.23
2023-04-17T01:49:17.329Z,11.97
2023-04-17T01:51:44.815Z,11.70
2023-04-17T01:54:12.309Z,10.53
2023-04-17T01:56:39.781Z,11.37
2023-04-17T01:59:08.610Z,9.90
2023-04-17T02:01:36.930Z,10.00
2023-04-17T02:04:04.724Z,10.00
2023-04-17T02:06:32.580Z,10.40
2023-04-17T02:09:00.209Z,9.93
2023-04-17T02:11:27.669Z,9.57
2023-04-17T02:13:55.153Z,10.83
2023-04-17T02:16:24.172Z,10.07
2023-04-17T02:18:52.529Z,10.57
2023-04-17T02:21:19.982Z,9.20
2023-04-17T02:23:47.508Z,9.43
2023-04-17T02:26:15.052Z,10.10
2023-04-17T02:28:44.762Z,10.73
2023-04-17T02:31:13.275Z,10.10
2023-04-17T02:33:42.149Z,12.23
2023-04-17T02:36:10.312Z,11.63
2023-04-17T02:38:37.814Z,13.53
2023-04-17T02:41:06.203Z,11.33
2023-04-17T02:43:33.661Z,12.73
2023-04-17T02:46:01.411Z,12.03
2023-04-17T02:48:28.931Z,11.80
2023-04-17T02:50:57.801Z,11.53
2023-04-17T02:53:25.356Z,11.37
2023-04-17T02:55:52.832Z,12.33
2023-04-17T02:58:20.302Z,13.17
2023-04-17T03:00:47.882Z,12.07
2023-04-17T03:03:15.663Z,12.47
2023-04-17T03:05:43.485Z,16.30
2023-04-17T03:08:12.277Z,12.20
2023-04-17T03:10:39.720Z,12.13
2023-04-17T03:13:07.176Z,13.63
2023-04-17T03:15:36.247Z,13.33
2023-04-17T03:18:03.746Z,12.53
2023-04-17T03:20:31.245Z,13.50
2023-04-17T03:22:58.688Z,14.70
2023-04-17T03:25:27.595Z,13.47
2023-04-17T03:27:56.367Z,11.87
2023-04-17T03:30:23.909Z,13.57
2023-04-17T03:32:51.412Z,15.23
2023-04-17T03:35:19.007Z,13.57
2023-04-17T03:37:46.633Z,14.97
2023-04-17T03:40:14.315Z,12.70
2023-04-17T03:42:43.150Z,13.43
2023-04-17T03:45:11.515Z,12.00
2023-04-17T03:47:39.027Z,10.80
2023-04-17T03:50:07.716Z,26.07
2023-04-17T03:52:35.181Z,18.70
2023-04-17T03:55:02.706Z,14.23
2023-04-17T03:57:30.170Z,16.53
2023-04-17T03:59:58.946Z,12.10
2023-04-17T04:02:26.554Z,14.60
2023-04-17T04:04:54.258Z,13.20
2023-04-17T04:07:21.828Z,15.53
2023-04-17T04:09:49.302Z,14.37
2023-04-17T04:12:16.744Z,18.13
2023-04-17T04:14:44.204Z,15.53
2023-04-17T04:17:13.011Z,14.37
2023-04-17T04:19:40.565Z,16.00
2023-04-17T04:22:08.008Z,13.97
2023-04-17T04:24:35.527Z,18.23
2023-04-17T04:27:05.228Z,18.77
2023-04-17T04:29:33.087Z,17.63
2023-04-17T04:32:01.075Z,17.20
2023-04-17T04:34:30.186Z,15.17
2023-04-17T04:36:57.728Z,16.80
2023-04-17T04:39:25.269Z,17.73
2023-04-17T04:41:53.312Z,18.27
2023-04-17T04:44:21.268Z,18.30
2023-04-17T04:46:48.811Z,21.53
2023-04-17T04:49:16.288Z,21.20
2023-04-17T04:51:45.344Z,18.93
2023-04-17T04:54:12.822Z,19.63
2023-04-17T04:56:40.407Z,17.60
2023-04-17T04:59:07.876Z,15.90
2023-04-17T05:01:36.024Z,17.20
2023-04-17T05:04:03.807Z,13.87
2023-04-17T05:06:31.420Z,16.60
2023-04-17T05:09:00.754Z,15.97
2023-04-17T05:11:28.253Z,17.70
2023-04-17T05:13:55.704Z,16.97
2023-04-17T05:16:23.209Z,20.47
2023-04-17T05:18:50.655Z,19.20
2023-04-17T05:21:18.129Z,17.00
2023-04-17T05:23:45.609Z,19.03
2023-04-17T05:26:14.386Z,19.67
2023-04-17T05:28:41.868Z,19.57
2023-04-17T05:31:09.412Z,20.33
2023-04-17T05:33:36.923Z,17.67
2023-04-17T05:36:04.717Z,18.50
2023-04-17T05:38:32.517Z,18.37
2023-04-17T05:41:01.639Z,20.13
2023-04-17T05:43:30.444Z,18.00
2023-04-17T05:45:57.939Z,18.63
2023-04-17T05:48:25.451Z,19.30
2023-04-17T05:50:52.976Z,21.63
2023-04-17T05:53:20.660Z,20.40
2023-04-17T05:55:48.113Z,19.40
2023-04-17T06:00:47.511Z,19.30
2023-04-17T06:03:18.142Z,14.63
2023-04-17T06:05:46.976Z,12.00
2023-04-17T06:08:14.654Z,13.03
2023-04-17T06:10:42.251Z,14.13
2023-04-17T06:13:09.807Z,14.80
2023-04-17T06:15:37.247Z,10.43
2023-04-17T06:18:06.382Z,6.30
2023-04-17T06:20:33.887Z,5.68
2023-04-17T06:23:01.651Z,5.03
2023-04-17T06:25:29.168Z,4.85
2023-04-17T06:27:56.618Z,4.57
2023-04-17T06:30:24.142Z,4.70
2023-04-17T06:32:51.679Z,3.90
2023-04-17T06:35:20.677Z,4.00
2023-04-17T06:37:48.207Z,3.80
2023-04-17T06:40:15.693Z,4.50
2023-04-17T06:42:43.215Z,4.30
2023-04-17T06:45:11.499Z,4.07
2023-04-17T06:47:39.057Z,5.25
2023-04-17T06:50:08.096Z,4.50
2023-04-17T06:52:36.907Z,4.32
2023-04-17T06:55:04.631Z,4.53
2023-04-17T06:57:33.880Z,4.53
2023-04-17T07:00:01.371Z,4.30
2023-04-17T07:02:29.037Z,7.40
2023-04-17T07:04:56.806Z,4.05
2023-04-17T07:07:24.461Z,4.10
2023-04-17T07:09:53.279Z,4.50
2023-04-17T07:12:20.805Z,4.38
2023-04-17T07:14:48.274Z,4.43
2023-04-17T07:17:15.945Z,4.50
2023-04-17T07:19:43.407Z,3.97
2023-04-17T07:22:11.026Z,3.80
2023-04-17T07:24:38.465Z,3.95
2023-04-17T07:27:07.600Z,3.80
2023-04-17T07:29:35.381Z,3.80
2023-04-17T07:32:03.528Z,3.65
2023-04-17T07:34:32.780Z,3.25
2023-04-17T07:37:00.386Z,3.10
2023-04-17T07:39:31.465Z,3.50
2023-04-17T07:41:58.951Z,3.35
2023-04-17T07:44:27.747Z,3.83
2023-04-17T07:46:55.826Z,3.83
2023-04-17T07:49:23.403Z,4.28
2023-04-17T07:51:50.890Z,4.80
2023-04-17T07:54:18.345Z,3.70
2023-04-17T07:56:47.064Z,4.18
2023-04-17T07:59:14.606Z,4.50
2023-04-17T08:01:43.483Z,4.57
2023-04-17T08:04:11.329Z,5.30
2023-04-17T08:06:39.017Z,5.65
2023-04-17T08:09:07.095Z,4.40
2023-04-17T08:11:40.144Z,4.82
2023-04-17T08:14:15.419Z,5.72
2023-04-17T08:16:44.350Z,4.13
2023-04-17T08:19:12.045Z,3.97
2023-04-17T08:21:39.721Z,4.38
2023-04-17T08:24:07.859Z,4.68
2023-04-17T08:26:35.364Z,5.32
2023-04-17T08:29:04.636Z,5.53
2023-04-17T08:31:32.286Z,6.18
2023-04-17T08:34:12.974Z,7.22
2023-04-17T08:36:41.635Z,5.18
2023-04-17T08:39:10.018Z,5.05
2023-04-17T08:41:45.182Z,5.88
2023-04-17T08:44:12.804Z,5.50
2023-04-17T08:46:40.800Z,5.05
2023-04-17T08:49:09.713Z,4.55
2023-04-17T08:51:37.167Z,4.70
2023-04-17T08:54:04.821Z,3.88
2023-04-17T08:56:32.292Z,4.70
2023-04-17T08:58:59.753Z,5.53
2023-04-17T09:01:29.763Z,11.93
2023-04-17T09:03:57.988Z,4.80
2023-04-17T09:06:27.510Z,4.43
2023-04-17T09:08:56.735Z,4.30
2023-04-17T09:11:24.295Z,4.28
2023-04-17T09:13:51.985Z,4.80
2023-04-17T09:16:20.586Z,4.65
2023-04-17T09:18:49.407Z,4.60
2023-04-17T09:21:19.513Z,4.72
2023-04-17T09:23:50.986Z,4.10
2023-04-17T09:26:20.892Z,3.88
2023-04-17T09:29:07.579Z,4.13
2023-04-17T09:31:36.196Z,3.90
2023-04-17T09:34:05.228Z,3.85
2023-04-17T09:36:35.129Z,5.25
2023-04-17T09:39:05.327Z,4.15
2023-04-17T09:41:36.297Z,3.72
2023-04-17T09:44:05.511Z,5.63
2023-04-17T09:46:38.891Z,4.50
2023-04-17T09:49:11.298Z,3.38
2023-04-17T09:51:39.542Z,4.00
2023-04-17T09:54:11.602Z,4.00
2023-04-17T09:56:39.891Z,4.35
2023-04-17T09:59:08.594Z,4.18
2023-04-17T10:01:38.108Z,3.95
2023-04-17T10:04:06.731Z,4.15
2023-04-17T10:06:36.010Z,4.40
2023-04-17T10:09:04.287Z,4.95
2023-04-17T10:11:42.494Z,3.30
2023-04-17T10:14:14.781Z,3.60
2023-04-17T10:16:43.757Z,3.30
2023-04-17T10:19:30.271Z,3.05
2023-04-17T10:22:40.935Z,2.80
2023-04-17T10:25:22.508Z,3.15
2023-04-17T10:27:53.545Z,2.63
2023-04-17T10:30:23.433Z,4.47
2023-04-17T10:33:24.794Z,3.03
2023-04-17T10:35:53.667Z,2.88
2023-04-17T10:38:34.685Z,3.00
2023-04-17T10:41:04.781Z,3.28
2023-04-17T10:43:33.924Z,3.20
2023-04-17T10:46:06.481Z,2.50
2023-04-17T10:48:36.014Z,2.50
2023-04-17T10:51:42.343Z,4.35
2023-04-17T10:54:13.533Z,2.70
2023-04-17T10:56:43.020Z,2.45
2023-04-17T10:59:13.570Z,2.92
2023-04-17T11:01:59.486Z,4.53
2023-04-17T11:04:29.661Z,3.67
2023-04-17T11:06:57.331Z,3.33
2023-04-17T11:09:26.565Z,3.47
2023-04-17T11:11:54.186Z,3.00
2023-04-17T11:14:24.340Z,3.30
2023-04-17T11:16:53.106Z,3.22
2023-04-17T11:19:23.003Z,2.95
2023-04-17T11:21:52.272Z,2.83
2023-04-17T11:24:23.874Z,2.60
2023-04-17T11:26:51.589Z,3.03
2023-04-17T11:29:21.072Z,2.40
2023-04-17T11:31:51.825Z,2.58
2023-04-17T11:34:19.876Z,2.45
2023-04-17T11:36:51.046Z,2.40
2023-04-17T11:39:19.006Z,2.20
2023-04-17T11:41:46.848Z,2.45
2023-04-17T11:44:15.258Z,2.33
2023-04-17T11:46:42.783Z,5.75
2023-04-17T11:49:12.633Z,2.10
2023-04-17T11:51:43.044Z,2.30
2023-04-17T11:54:10.747Z,1.77
2023-04-17T11:56:38.364Z,2.47
2023-04-17T11:59:06.401Z,2.10
2023-04-17T12:01:33.996Z,2.20
2023-04-17T12:04:01.606Z,2.28
2023-04-17T12:06:38.374Z,2.22
2023-04-17T12:09:07.100Z,2.03
2023-04-17T12:11:34.805Z,2.70
2023-04-17T12:14:03.748Z,2.40
2023-04-17T12:16:31.466Z,2.38
2023-04-17T12:18:59.065Z,2.40
2023-04-17T12:21:26.653Z,2.00
2023-04-17T12:23:55.469Z,5.32
2023-04-17T12:26:24.941Z,3.25
2023-04-17T12:28:52.434Z,2.80
2023-04-17T12:33:47.527Z,3.20
2023-04-17T12:36:15.054Z,3.60
2023-04-17T12:38:43.249Z,5.72
2023-04-17T12:41:12.078Z,3.85
2023-04-17T12:43:39.536Z,3.50
2023-04-17T12:46:07.094Z,2.90
2023-04-17T12:48:34.941Z,2.72
2023-04-17T12:51:02.441Z,2.25
2023-04-17T12:53:30.351Z,2.13
2023-04-17T12:55:58.433Z,2.00
2023-04-17T12:58:27.300Z,1.90
2023-04-17T13:00:54.844Z,1.80
2023-04-17T13:03:22.493Z,2.30
2023-04-17T13:05:52.706Z,1.80
2023-04-17T13:08:20.306Z,2.70
2023-04-17T13:10:47.787Z,2.17
2023-04-17T13:13:15.253Z,1.92
2023-04-17T13:15:45.914Z,2.80
2023-04-17T13:18:13.432Z,2.58
2023-04-17T13:20:41.121Z,1.90
2023-04-17T13:23:11.703Z,1.75
2023-04-17T13:25:39.230Z,1.48
2023-04-17T13:28:06.795Z,1.58
2023-04-17T13:30:36.939Z,1.83
2023-04-17T13:33:05.945Z,1.90
2023-04-17T13:35:33.484Z,1.55
2023-04-17T13:38:03.036Z,1.90
2023-04-17T13:40:31.049Z,2.05
2023-04-17T13:42:58.528Z,1.75
2023-04-17T13:45:26.011Z,1.80
2023-04-17T13:47:53.766Z,1.70
2023-04-17T13:50:22.727Z,2.80
2023-04-17T13:52:50.270Z,1.70
2023-04-17T13:55:17.924Z,2.00
2023-04-17T13:57:45.398Z,1.60
2023-04-17T14:00:14.297Z,1.70
2023-04-17T14:02:42.648Z,1.70
2023-04-17T14:05:11.177Z,1.80
2023-04-17T14:07:40.460Z,1.88
2023-04-17T14:10:09.934Z,1.77
2023-04-17T14:12:37.469Z,1.88
2023-04-17T14:15:06.468Z,1.80
2023-04-17T14:17:34.359Z,1.80
2023-04-17T14:20:01.925Z,1.40
2023-04-17T14:22:29.426Z,1.80
2023-04-17T14:24:58.261Z,1.80
2023-04-17T14:27:25.875Z,1.95
2023-04-17T14:29:53.349Z,1.85
2023-04-17T14:32:20.866Z,1.90
2023-04-17T14:34:48.409Z,1.60
2023-04-17T14:37:15.978Z,1.30
2023-04-17T14:39:43.454Z,1.65
2023-04-17T14:42:12.238Z,1.50
2023-04-17T14:44:39.737Z,1.52
2023-04-17T14:47:08.098Z,1.88
2023-04-17T14:49:35.717Z,1.40
2023-04-17T14:52:03.202Z,2.30
2023-04-17T14:54:30.871Z,1.80
2023-04-17T14:56:58.625Z,1.63
2023-04-17T14:59:28.443Z,2.30
2023-04-17T15:01:56.123Z,2.03
2023-04-17T15:04:24.014Z,3.17
2023-04-17T15:06:51.628Z,1.90
2023-04-17T15:09:19.176Z,1.75
2023-04-17T15:11:47.423Z,1.98
2023-04-17T15:14:14.950Z,1.70
2023-04-17T15:16:43.765Z,1.80
2023-04-17T15:19:11.531Z,1.80
2023-04-17T15:21:39.148Z,1.65
2023-04-17T15:24:07.414Z,1.75
2023-04-17T15:26:35.474Z,1.70
2023-04-17T15:29:03.689Z,1.90
2023-04-17T15:31:31.162Z,1.60
2023-04-17T15:33:59.959Z,2.10
2023-04-17T15:36:32.132Z,1.70
2023-04-17T15:38:59.635Z,2.15
2023-04-17T15:41:27.256Z,1.90
2023-04-17T15:43:54.740Z,1.50
2023-04-17T15:46:22.351Z,1.75
2023-04-17T15:49:01.148Z,1.60
2023-04-17T15:51:37.283Z,2.60
2023-04-17T15:54:05.754Z,2.17
2023-04-17T15:56:33.312Z,2.10
2023-04-17T15:59:00.888Z,2.67
2023-04-17T16:01:28.630Z,2.50
2023-04-17T16:03:56.328Z,1.98
2023-04-17T16:06:23.991Z,2.05
2023-04-17T16:08:52.860Z,2.45
2023-04-17T16:11:20.544Z,2.75
2023-04-17T16:13:47.997Z,2.03
2023-04-17T16:16:15.910Z,5.32
2023-04-17T16:18:43.408Z,3.03
2023-04-17T16:21:11.986Z,2.40
2023-04-17T16:23:39.476Z,2.58
2023-04-17T16:26:08.466Z,2.60
2023-04-17T16:28:36.187Z,6.38
2023-04-17T16:31:03.690Z,5.03
2023-04-17T16:33:31.201Z,2.58
2023-04-17T16:35:58.681Z,3.10
2023-04-17T16:38:27.555Z,4.57
2023-04-17T16:40:57.026Z,3.50
2023-04-17T16:43:25.872Z,3.50
2023-04-17T16:45:53.330Z,2.58
2023-04-17T16:48:20.881Z,2.10
2023-04-17T16:50:48.593Z,2.60
2023-04-17T16:53:16.070Z,2.70
2023-04-17T16:55:43.625Z,2.40
2023-04-17T16:58:12.108Z,3.15
2023-04-17T17:00:40.905Z,2.20
2023-04-17T17:03:08.558Z,10.35
2023-04-17T17:05:36.959Z,2.00
2023-04-17T17:08:04.437Z,2.13
2023-04-17T17:10:31.866Z,2.55
2023-04-17T17:12:59.331Z,1.75
2023-04-17T17:15:26.815Z,1.70
2023-04-17T17:17:55.762Z,2.00
2023-04-17T17:20:23.308Z,2.08
2023-04-17T17:22:50.890Z,2.20
2023-04-17T17:25:18.573Z,2.10
2023-04-17T17:27:46.089Z,1.80
2023-04-17T17:30:14.527Z,2.03
2023-04-17T17:32:42.110Z,2.10
2023-04-17T17:35:11.239Z,2.15
2023-04-17T17:37:38.708Z,3.15
2023-04-17T17:40:07.527Z,2.70
2023-04-17T17:42:35.180Z,2.83
2023-04-17T17:45:02.817Z,3.20
2023-04-17T17:47:30.665Z,3.65
2023-04-17T17:49:58.396Z,3.17
2023-04-17T17:52:27.371Z,2.88
2023-04-17T17:54:54.854Z,4.32
2023-04-17T17:57:22.343Z,4.10
2023-04-17T17:59:49.901Z,5.70
2023-04-17T18:02:17.551Z,5.38
2023-04-17T18:04:49.026Z,5.70
2023-04-17T18:07:16.640Z,4.75
2023-04-17T18:09:46.375Z,4.20
2023-04-17T18:12:14.855Z,4.13
2023-04-17T18:14:42.321Z,5.20
2023-04-17T18:17:09.904Z,3.90
2023-04-17T18:19:40.731Z,4.35
2023-04-17T18:22:08.421Z,4.65
2023-04-17T18:24:35.967Z,8.90
2023-04-17T18:27:04.940Z,5.60
2023-04-17T18:29:33.834Z,8.38
2023-04-17T18:32:01.347Z,4.47
2023-04-17T18:34:28.857Z,5.00
2023-04-17T18:36:58.470Z,4.73
2023-04-17T18:39:26.067Z,7.05
2023-04-17T18:41:53.560Z,5.07
2023-04-17T18:44:22.773Z,6.70
2023-04-17T18:46:50.441Z,7.73
2023-04-17T18:49:18.126Z,5.47
2023-04-17T18:51:47.841Z,7.88
2023-04-17T18:54:15.939Z,5.68
2023-04-17T18:56:43.634Z,5.60
2023-04-17T18:59:11.619Z,5.93
2023-04-17T19:01:42.613Z,4.97
2023-04-17T19:04:10.491Z,5.10
2023-04-17T19:06:38.221Z,5.25
2023-04-17T19:09:05.729Z,6.00
2023-04-17T19:11:33.513Z,7.65
2023-04-17T19:14:01.015Z,6.13
2023-04-17T19:16:28.593Z,8.17
2023-04-17T19:18:57.515Z,6.93
2023-04-17T19:21:25.013Z,7.25
2023-04-17T19:23:52.503Z,7.07
2023-04-17T19:26:19.993Z,6.78
2023-04-17T19:28:47.481Z,9.80
2023-04-17T19:31:14.992Z,5.67
2023-04-17T19:33:42.507Z,6.07
2023-04-17T19:36:11.352Z,6.73
2023-04-17T19:38:38.840Z,6.60
2023-04-17T19:41:17.710Z,7.70
2023-04-17T19:43:46.012Z,7.83
2023-04-17T19:46:14.570Z,8.60
2023-04-17T19:48:43.582Z,7.20
2023-04-17T19:51:13.317Z,10.93
2023-04-17T19:53:42.645Z,7.43
2023-04-17T19:56:10.857Z,7.47
2023-04-17T19:58:39.303Z,8.50
2023-04-17T20:01:06.807Z,7.63
2023-04-17T20:03:35.415Z,7.07
2023-04-17T20:06:03.539Z,8.57
2023-04-17T20:08:32.393Z,8.47
2023-04-17T20:10:59.932Z,8.13
2023-04-17T20:13:27.954Z,8.53
2023-04-17T20:15:55.521Z,7.93
2023-04-17T20:18:23.041Z,8.83
2023-04-17T20:20:50.574Z,8.70
2023-04-17T20:23:18.039Z,8.17
2023-04-17T20:25:46.885Z,9.63
2023-04-17T20:28:14.463Z,9.10
2023-04-17T20:30:41.917Z,10.10
2023-04-17T20:33:09.485Z,8.60
2023-04-17T20:35:37.028Z,8.63
2023-04-17T20:38:04.620Z,9.53
2023-04-17T20:40:32.127Z,9.50
2023-04-17T20:43:01.059Z,8.77
2023-04-17T20:45:28.837Z,9.33
2023-04-17T20:47:57.220Z,8.40
2023-04-17T20:50:25.420Z,9.43
2023-04-17T20:52:52.915Z,10.83
2023-04-17T20:55:20.818Z,9.73
2023-04-17T20:57:48.680Z,9.17
2023-04-17T21:00:17.813Z,10.70
2023-04-17T21:02:45.892Z,9.43
2023-04-17T21:05:13.413Z,10.03
2023-04-17T21:07:40.884Z,9.30
2023-04-17T21:10:09.330Z,9.47
2023-04-17T21:12:36.782Z,10.50
2023-04-17T21:15:04.590Z,10.03
2023-04-17T21:17:33.424Z,11.97
2023-04-17T21:20:00.890Z,10.83
2023-04-17T21:22:28.354Z,10.47
2023-04-17T21:24:55.810Z,10.03
2023-04-17T21:27:23.750Z,11.67
2023-04-17T21:29:51.281Z,11.07
2023-04-17T21:32:18.796Z,12.23
2023-04-17T21:34:47.632Z,11.53
2023-04-17T21:37:15.125Z,12.63
2023-04-17T21:39:42.598Z,13.03
2023-04-17T21:42:10.695Z,12.03
2023-04-17T21:44:38.132Z,14.83
2023-04-17T21:47:05.666Z,13.90
2023-04-17T21:49:33.147Z,13.87
2023-04-17T21:52:02.042Z,13.63
2023-04-17T21:54:29.568Z,12.63
2023-04-17T21:56:57.017Z,13.53
2023-04-17T21:59:24.882Z,11.77
2023-04-17T22:01:52.375Z,14.00
2023-04-17T22:04:19.944Z,15.27
2023-04-17T22:06:47.499Z,14.73
2023-04-17T22:09:16.461Z,14.37
2023-04-17T22:11:43.952Z,18.70
2023-04-17T22:14:11.802Z,15.57
2023-04-17T22:16:39.437Z,14.30
2023-04-17T22:19:07.141Z,16.63
2023-04-17T22:21:34.617Z,15.80
2023-04-17T22:24:02.143Z,16.27
2023-04-17T22:26:31.538Z,16.17
2023-04-17T22:28:58.981Z,13.57
2023-04-17T22:31:26.491Z,16.77
2023-04-17T22:33:53.966Z,15.43
2023-04-17T22:36:21.427Z,15.90
2023-04-17T22:38:48.897Z,16.80
2023-04-17T22:41:16.338Z,17.37
2023-04-17T22:43:48.653Z,15.83
2023-04-17T22:46:16.606Z,14.57
2023-04-17T22:48:45.044Z,15.77
2023-04-17T22:51:13.525Z,12.37
2023-04-17T22:53:41.046Z,15.90
2023-04-17T22:56:12.784Z,15.93
2023-04-17T22:58:40.320Z,15.80
2023-04-17T23:01:09.188Z,14.87
2023-04-17T23:03:36.725Z,13.83
2023-04-17T23:06:04.916Z,14.50
2023-04-17T23:08:32.387Z,11.73
2023-04-17T23:11:00.945Z,13.03
2023-04-17T23:13:28.890Z,13.20
2023-04-17T23:15:56.433Z,13.53
2023-04-17T23:18:25.410Z,13.47
2023-04-17T23:20:52.896Z,13.00
2023-04-17T23:23:20.603Z,12.27
2023-04-17T23:25:48.193Z,13.37
2023-04-17T23:28:15.780Z,11.43
2023-04-17T23:30:43.281Z,13.33
2023-04-17T23:33:10.760Z,11.20
2023-04-17T23:35:39.559Z,11.77
2023-04-17T23:38:07.081Z,15.17
2023-04-17T23:40:35.721Z,6.93
2023-04-17T23:43:03.200Z,11.53
2023-04-17T23:45:30.683Z,13.67
2023-04-17T23:47:58.194Z,12.60
2023-04-17T23:50:25.973Z,9.93
2023-04-17T23:52:55.130Z,12.83
2023-04-17T23:55:25.708Z,14.17
2023-04-17T23:57:53.235Z,14.00
